sensor_id;sensor_type;location;lat;lon;timestamp;pressure;altitude;pressure_sealevel;temperature;humidity
40171;BME280;37650;52.790;18.268;2022-12-05T06:58:41;101205.61;;;-0.09;100.00
40171;BME280;37650;52.790;18.268;2022-12-05T07:02:06;101202.47;;;-0.11;100.00
40171;BME280;37650;52.790;18.268;2022-12-05T07:05:33;101200.38;;;-0.12;100.00
40171;BME280;37650;52.790;18.268;2022-12-05T07:08:55;101198.51;;;-0.11;100.00
40171;BME280;37650;52.790;18.268;2022-12-05T07:12:17;101196.95;;;-0.11;100.00
40171;BME280;37650;52.790;18.268;2022-12-05T07:15:38;101185.55;;;-0.11;100.00
40171;BME280;37650;52.790;18.268;2022-12-05T07:18:59;101183.82;;;-0.13;100.00
40171;BME280;37650;52.790;18.268;2022-12-05T07:22:21;101182.79;;;-0.12;100.00
40171;BME280;37650;52.790;18.268;2022-12-05T07:25:42;101185.91;;;-0.11;100.00
40171;BME280;37650;52.790;18.268;2022-12-05T07:29:03;101188.82;;;-0.13;100.00
40171;BME280;37650;52.790;18.268;2022-12-05T07:32:23;101190.23;;;-0.11;100.00
40171;BME280;37650;52.790;18.268;2022-12-05T07:35:44;101189.19;;;-0.12;100.00
40171;BME280;37650;52.790;18.268;2022-12-05T07:39:06;101192.74;;;-0.14;100.00
40171;BME280;37650;52.790;18.268;2022-12-05T07:42:27;101194.45;;;-0.15;100.00
40171;BME280;37650;52.790;18.268;2022-12-05T07:45:47;101197.55;;;-0.17;100.00
40171;BME280;37650;52.790;18.268;2022-12-05T07:49:09;101198.60;;;-0.15;100.00
40171;BME280;37650;52.790;18.268;2022-12-05T07:52:30;101195.14;;;-0.15;100.00
40171;BME280;37650;52.790;18.268;2022-12-05T07:55:51;101192.58;;;-0.14;100.00
40171;BME280;37650;52.790;18.268;2022-12-05T07:59:12;101193.12;;;-0.13;100.00
40171;BME280;37650;52.790;18.268;2022-12-05T08:02:33;101193.98;;;-0.13;100.00
40171;BME280;37650;52.790;18.268;2022-12-05T08:05:54;101198.29;;;-0.14;100.00
40171;BME280;37650;52.790;18.268;2022-12-05T08:09:15;101202.55;;;-0.16;100.00
40171;BME280;37650;52.790;18.268;2022-12-05T08:12:36;101206.06;;;-0.12;100.00
40171;BME280;37650;52.790;18.268;2022-12-05T08:16:05;101207.85;;;-0.09;100.00
40171;BME280;37650;52.790;18.268;2022-12-05T08:19:26;101200.11;;;-0.08;100.00
40171;BME280;37650;52.790;18.268;2022-12-05T08:22:51;101201.89;;;-0.06;100.00
40171;BME280;37650;52.790;18.268;2022-12-05T08:26:16;101198.83;;;-0.03;100.00
40171;BME280;37650;52.790;18.268;2022-12-05T08:29:38;101202.15;;;-0.01;100.00
40171;BME280;37650;52.790;18.268;2022-12-05T08:32:59;101199.52;;;-0.03;100.00
40171;BME280;37650;52.790;18.268;2022-12-05T08:36:20;101198.12;;;-0.04;100.00
40171;BME280;37650;52.790;18.268;2022-12-05T08:39:41;101197.59;;;-0.04;100.00
40171;BME280;37650;52.790;18.268;2022-12-05T08:43:02;101193.55;;;0.01;100.00
40171;BME280;37650;52.790;18.268;2022-12-05T08:46:23;101190.52;;;0.06;100.00
40171;BME280;37650;52.790;18.268;2022-12-05T08:49:44;101192.92;;;0.04;100.00
40171;BME280;37650;52.790;18.268;2022-12-05T08:53:05;101190.13;;;0.02;100.00
40171;BME280;37650;52.790;18.268;2022-12-05T08:56:26;101188.19;;;-0.01;100.00
40171;BME280;37650;52.790;18.268;2022-12-05T08:59:46;101191.31;;;0.02;100.00
40171;BME280;37650;52.790;18.268;2022-12-05T09:03:11;101190.11;;;0.02;100.00
40171;BME280;37650;52.790;18.268;2022-12-05T09:06:33;101191.29;;;-0.01;100.00
40171;BME280;37650;52.790;18.268;2022-12-05T09:09:55;101189.91;;;-0.01;100.00
40171;BME280;37650;52.790;18.268;2022-12-05T09:13:15;101188.84;;;-0.02;100.00
40171;BME280;37650;52.790;18.268;2022-12-05T09:16:38;101186.30;;;0.00;100.00
40171;BME280;37650;52.790;18.268;2022-12-05T09:20:04;101185.67;;;0.04;100.00
40171;BME280;37650;52.790;18.268;2022-12-05T09:23:25;101180.60;;;0.09;100.00
40171;BME280;37650;52.790;18.268;2022-12-05T09:26:46;101177.37;;;0.12;100.00
40171;BME280;37650;52.790;18.268;2022-12-05T09:30:08;101175.13;;;0.12;100.00
40171;BME280;37650;52.790;18.268;2022-12-05T09:33:31;101175.18;;;0.15;100.00
40171;BME280;37650;52.790;18.268;2022-12-05T09:36:52;101168.20;;;0.20;100.00
40171;BME280;37650;52.790;18.268;2022-12-05T09:40:16;101167.68;;;0.20;100.00
40171;BME280;37650;52.790;18.268;2022-12-05T09:47:37;101165.38;;;0.17;100.00
40171;BME280;37650;52.790;18.268;2022-12-05T09:51:02;101169.33;;;0.17;100.00
40171;BME280;37650;52.790;18.268;2022-12-05T09:54:23;101163.29;;;0.16;100.00
40171;BME280;37650;52.790;18.268;2022-12-05T09:57:55;101148.66;;;0.18;100.00
40171;BME280;37650;52.790;18.268;2022-12-05T10:05:21;101139.15;;;0.26;100.00
40171;BME280;37650;52.790;18.268;2022-12-05T10:09:07;101138.76;;;0.24;100.00
40171;BME280;37650;52.790;18.268;2022-12-05T10:16:37;101140.52;;;0.26;100.00
40171;BME280;37650;52.790;18.268;2022-12-05T10:20:09;101142.59;;;0.26;100.00
40171;BME280;37650;52.790;18.268;2022-12-05T10:27:15;101130.20;;;0.28;100.00
40171;BME280;37650;52.790;18.268;2022-12-05T10:30:40;101127.64;;;0.29;100.00
40171;BME280;37650;52.790;18.268;2022-12-05T10:34:28;101130.41;;;0.30;100.00
40171;BME280;37650;52.790;18.268;2022-12-05T10:37:57;101125.08;;;0.31;100.00
40171;BME280;37650;52.790;18.268;2022-12-05T10:41:20;101117.21;;;0.36;100.00
40171;BME280;37650;52.790;18.268;2022-12-05T10:44:42;101117.17;;;0.34;100.00
40171;BME280;37650;52.790;18.268;2022-12-05T10:48:04;101114.43;;;0.34;100.00
40171;BME280;37650;52.790;18.268;2022-12-05T10:51:27;101121.88;;;0.36;100.00
40171;BME280;37650;52.790;18.268;2022-12-05T10:54:53;101124.16;;;0.38;100.00
40171;BME280;37650;52.790;18.268;2022-12-05T10:58:18;101121.25;;;0.40;100.00
40171;BME280;37650;52.790;18.268;2022-12-05T11:01:52;101123.84;;;0.40;100.00
40171;BME280;37650;52.790;18.268;2022-12-05T11:05:15;101126.02;;;0.37;100.00
40171;BME280;37650;52.790;18.268;2022-12-05T11:08:36;101119.41;;;0.34;100.00
40171;BME280;37650;52.790;18.268;2022-12-05T11:15:27;101115.61;;;0.33;100.00
40171;BME280;37650;52.790;18.268;2022-12-05T11:18:48;101108.55;;;0.34;100.00
40171;BME280;37650;52.790;18.268;2022-12-05T11:22:15;101101.83;;;0.34;100.00
40171;BME280;37650;52.790;18.268;2022-12-05T11:25:37;101106.87;;;0.37;100.00
40171;BME280;37650;52.790;18.268;2022-12-05T11:28:58;101095.56;;;0.42;100.00
40171;BME280;37650;52.790;18.268;2022-12-05T11:32:24;101091.23;;;0.41;100.00
40171;BME280;37650;52.790;18.268;2022-12-05T11:35:48;101086.96;;;0.45;100.00
40171;BME280;37650;52.790;18.268;2022-12-05T11:39:11;101086.45;;;0.45;100.00
40171;BME280;37650;52.790;18.268;2022-12-05T11:58:17;101051.52;;;0.52;100.00
40171;BME280;37650;52.790;18.268;2022-12-05T12:12:54;101027.22;;;0.55;100.00
40171;BME280;37650;52.790;18.268;2022-12-05T12:16:38;101020.10;;;0.53;100.00
40171;BME280;37650;52.790;18.268;2022-12-05T12:28:32;100997.65;;;0.51;100.00
40171;BME280;37650;52.790;18.268;2022-12-05T12:31:59;100996.48;;;0.55;100.00
40171;BME280;37650;52.790;18.268;2022-12-05T12:50:44;100995.12;;;0.56;100.00
40171;BME280;37650;52.790;18.268;2022-12-05T13:02:26;101002.36;;;0.56;100.00
40171;BME280;37650;52.790;18.268;2022-12-05T13:06:01;101007.52;;;0.54;100.00
40171;BME280;37650;52.790;18.268;2022-12-05T13:09:38;101008.55;;;0.54;100.00
40171;BME280;37650;52.790;18.268;2022-12-05T13:13:02;101002.34;;;0.54;100.00
40171;BME280;37650;52.790;18.268;2022-12-05T13:16:33;100997.11;;;0.51;100.00
40171;BME280;37650;52.790;18.268;2022-12-05T13:19:55;100995.18;;;0.48;100.00
40171;BME280;37650;52.790;18.268;2022-12-05T13:23:22;100989.67;;;0.48;100.00
40171;BME280;37650;52.790;18.268;2022-12-05T13:26:47;100990.07;;;0.52;100.00
40171;BME280;37650;52.790;18.268;2022-12-05T13:30:16;100983.36;;;0.55;100.00
40171;BME280;37650;52.790;18.268;2022-12-05T13:33:44;100983.20;;;0.56;100.00
40171;BME280;37650;52.790;18.268;2022-12-05T13:37:11;100984.74;;;0.54;100.00
40171;BME280;37650;52.790;18.268;2022-12-05T13:40:56;100976.27;;;0.53;100.00
40171;BME280;37650;52.790;18.268;2022-12-05T13:51:30;100978.13;;;0.51;100.00
40171;BME280;37650;52.790;18.268;2022-12-05T13:55:21;100975.41;;;0.54;100.00
40171;BME280;37650;52.790;18.268;2022-12-05T13:58:51;100981.63;;;0.53;100.00
40171;BME280;37650;52.790;18.268;2022-12-05T14:06:03;100975.52;;;0.48;100.00
40171;BME280;37650;52.790;18.268;2022-12-05T14:13:02;100972.40;;;0.48;100.00
40171;BME280;37650;52.790;18.268;2022-12-05T14:16:41;100968.09;;;0.49;100.00
40171;BME280;37650;52.790;18.268;2022-12-05T14:27:43;100964.73;;;0.56;100.00
40171;BME280;37650;52.790;18.268;2022-12-05T14:38:31;100954.02;;;0.56;100.00
40171;BME280;37650;52.790;18.268;2022-12-05T14:41:58;100950.92;;;0.56;100.00
40171;BME280;37650;52.790;18.268;2022-12-05T14:48:45;100942.00;;;0.60;100.00
40171;BME280;37650;52.790;18.268;2022-12-05T14:52:09;100938.89;;;0.60;100.00
40171;BME280;37650;52.790;18.268;2022-12-05T14:55:34;100933.41;;;0.64;100.00
40171;BME280;37650;52.790;18.268;2022-12-05T14:59:22;100935.16;;;0.66;100.00
40171;BME280;37650;52.790;18.268;2022-12-05T15:02:45;100935.48;;;0.64;100.00
40171;BME280;37650;52.790;18.268;2022-12-05T15:06:13;100942.22;;;0.64;100.00
40171;BME280;37650;52.790;18.268;2022-12-05T15:09:56;100939.48;;;0.66;100.00
40171;BME280;37650;52.790;18.268;2022-12-05T15:13:21;100946.20;;;0.65;100.00
40171;BME280;37650;52.790;18.268;2022-12-05T15:16:49;100944.48;;;0.66;100.00
40171;BME280;37650;52.790;18.268;2022-12-05T15:20:18;100941.20;;;0.66;100.00
40171;BME280;37650;52.790;18.268;2022-12-05T15:23:44;100945.01;;;0.66;100.00
40171;BME280;37650;52.790;18.268;2022-12-05T15:27:09;100940.73;;;0.70;100.00
40171;BME280;37650;52.790;18.268;2022-12-05T15:30:35;100940.92;;;0.70;100.00
40171;BME280;37650;52.790;18.268;2022-12-05T15:34:24;100938.81;;;0.68;100.00
40171;BME280;37650;52.790;18.268;2022-12-05T15:37:57;100927.48;;;0.73;100.00
40171;BME280;37650;52.790;18.268;2022-12-05T15:41:20;100924.02;;;0.73;100.00
40171;BME280;37650;52.790;18.268;2022-12-05T15:44:41;100922.65;;;0.74;100.00
40171;BME280;37650;52.790;18.268;2022-12-05T15:51:35;100915.05;;;0.72;100.00
40171;BME280;37650;52.790;18.268;2022-12-05T15:55:06;100914.87;;;0.73;100.00
40171;BME280;37650;52.790;18.268;2022-12-05T16:02:02;100913.86;;;0.74;100.00
40171;BME280;37650;52.790;18.268;2022-12-05T16:05:32;100915.07;;;0.74;100.00
40171;BME280;37650;52.790;18.268;2022-12-05T16:08:56;100909.90;;;0.77;100.00
40171;BME280;37650;52.790;18.268;2022-12-05T16:15:48;100910.98;;;0.81;100.00
40171;BME280;37650;52.790;18.268;2022-12-05T16:19:15;100916.52;;;0.82;100.00
40171;BME280;37650;52.790;18.268;2022-12-05T16:22:43;100915.17;;;0.84;100.00
40171;BME280;37650;52.790;18.268;2022-12-05T16:26:20;100919.84;;;0.86;100.00
40171;BME280;37650;52.790;18.268;2022-12-05T16:29:45;100917.60;;;0.86;100.00
40171;BME280;37650;52.790;18.268;2022-12-05T16:33:12;100921.21;;;0.84;100.00
40171;BME280;37650;52.790;18.268;2022-12-05T16:36:35;100914.48;;;0.85;100.00
40171;BME280;37650;52.790;18.268;2022-12-05T16:40:20;100911.95;;;0.89;100.00
40171;BME280;37650;52.790;18.268;2022-12-05T16:43:44;100911.77;;;0.89;100.00
40171;BME280;37650;52.790;18.268;2022-12-05T16:47:21;100909.48;;;0.87;100.00
40171;BME280;37650;52.790;18.268;2022-12-05T16:50:43;100909.53;;;0.90;100.00
40171;BME280;37650;52.790;18.268;2022-12-05T16:54:06;100902.93;;;0.88;100.00
40171;BME280;37650;52.790;18.268;2022-12-05T16:57:27;100905.52;;;0.88;100.00
40171;BME280;37650;52.790;18.268;2022-12-05T17:00:50;100904.35;;;0.90;100.00
40171;BME280;37650;52.790;18.268;2022-12-05T17:04:11;100901.26;;;0.91;100.00
40171;BME280;37650;52.790;18.268;2022-12-05T17:07:34;100899.88;;;0.92;100.00
40171;BME280;37650;52.790;18.268;2022-12-05T17:10:56;100898.69;;;0.93;100.00
40171;BME280;37650;52.790;18.268;2022-12-05T17:14:17;100895.07;;;0.94;100.00
40171;BME280;37650;52.790;18.268;2022-12-05T17:17:38;100892.30;;;0.94;100.00
40171;BME280;37650;52.790;18.268;2022-12-05T17:21:00;100890.95;;;0.97;100.00
40171;BME280;37650;52.790;18.268;2022-12-05T17:24:22;100886.96;;;0.97;100.00
40171;BME280;37650;52.790;18.268;2022-12-05T17:27:44;100884.23;;;1.00;100.00
40171;BME280;37650;52.790;18.268;2022-12-05T17:31:08;100876.61;;;0.97;100.00
40171;BME280;37650;52.790;18.268;2022-12-05T17:34:31;100874.53;;;0.96;100.00
40171;BME280;37650;52.790;18.268;2022-12-05T17:37:52;100874.18;;;0.97;100.00
40171;BME280;37650;52.790;18.268;2022-12-05T17:41:25;100870.25;;;1.00;100.00
40171;BME280;37650;52.790;18.268;2022-12-05T17:44:46;100871.27;;;0.98;100.00
40171;BME280;37650;52.790;18.268;2022-12-05T17:48:11;100875.06;;;0.96;100.00
40171;BME280;37650;52.790;18.268;2022-12-05T17:51:34;100875.58;;;0.97;100.00
40171;BME280;37650;52.790;18.268;2022-12-05T17:54:57;100870.38;;;0.97;100.00
40171;BME280;37650;52.790;18.268;2022-12-05T17:58:19;100864.37;;;0.99;100.00
40171;BME280;37650;52.790;18.268;2022-12-05T18:01:40;100866.12;;;1.03;100.00
40171;BME280;37650;52.790;18.268;2022-12-05T18:05:03;100867.02;;;1.04;100.00
40171;BME280;37650;52.790;18.268;2022-12-05T18:08:25;100865.80;;;1.04;100.00
40171;BME280;37650;52.790;18.268;2022-12-05T18:11:47;100865.11;;;1.05;100.00
40171;BME280;37650;52.790;18.268;2022-12-05T18:15:12;100862.83;;;1.00;100.00
40171;BME280;37650;52.790;18.268;2022-12-05T18:18:33;100862.14;;;1.01;100.00
40171;BME280;37650;52.790;18.268;2022-12-05T18:21:55;100858.70;;;1.04;100.00
40171;BME280;37650;52.790;18.268;2022-12-05T18:25:16;100860.81;;;1.06;100.00
40171;BME280;37650;52.790;18.268;2022-12-05T18:28:38;100858.02;;;1.04;100.00
40171;BME280;37650;52.790;18.268;2022-12-05T18:32:00;100859.26;;;1.05;100.00
40171;BME280;37650;52.790;18.268;2022-12-05T18:35:25;100857.91;;;1.10;100.00
40171;BME280;37650;52.790;18.268;2022-12-05T18:39:04;100861.04;;;1.11;100.00
40171;BME280;37650;52.790;18.268;2022-12-05T18:42:26;100860.16;;;1.11;100.00
40171;BME280;37650;52.790;18.268;2022-12-05T18:45:54;100858.27;;;1.12;100.00
40171;BME280;37650;52.790;18.268;2022-12-05T18:49:15;100856.73;;;1.15;100.00
40171;BME280;37650;52.790;18.268;2022-12-05T18:52:39;100857.49;;;1.22;100.00
40171;BME280;37650;52.790;18.268;2022-12-05T18:56:07;100846.60;;;1.23;100.00
40171;BME280;37650;52.790;18.268;2022-12-05T18:59:41;100837.96;;;1.23;100.00
40171;BME280;37650;52.790;18.268;2022-12-05T19:03:02;100839.73;;;1.26;100.00
40171;BME280;37650;52.790;18.268;2022-12-05T19:06:27;100833.52;;;1.28;100.00
40171;BME280;37650;52.790;18.268;2022-12-05T19:09:49;100839.91;;;1.30;100.00
40171;BME280;37650;52.790;18.268;2022-12-05T19:13:11;100842.54;;;1.34;100.00
40171;BME280;37650;52.790;18.268;2022-12-05T19:16:33;100843.41;;;1.36;100.00
40171;BME280;37650;52.790;18.268;2022-12-05T19:19:55;100839.27;;;1.36;100.00
40171;BME280;37650;52.790;18.268;2022-12-05T19:23:18;100839.82;;;1.39;100.00
40171;BME280;37650;52.790;18.268;2022-12-05T19:26:39;100842.78;;;1.42;100.00
40171;BME280;37650;52.790;18.268;2022-12-05T19:30:01;100843.80;;;1.39;100.00
40171;BME280;37650;52.790;18.268;2022-12-05T19:33:47;100841.55;;;1.38;100.00
40171;BME280;37650;52.790;18.268;2022-12-05T19:37:09;100840.87;;;1.41;100.00
40171;BME280;37650;52.790;18.268;2022-12-05T19:40:32;100839.00;;;1.43;100.00
40171;BME280;37650;52.790;18.268;2022-12-05T19:43:58;100837.76;;;1.40;100.00
40171;BME280;37650;52.790;18.268;2022-12-05T19:47:20;100842.20;;;1.35;100.00
40171;BME280;37650;52.790;18.268;2022-12-05T19:50:42;100848.77;;;1.33;100.00
40171;BME280;37650;52.790;18.268;2022-12-05T19:54:05;100843.59;;;1.34;100.00
40171;BME280;37650;52.790;18.268;2022-12-05T19:57:31;100837.56;;;1.38;100.00
40171;BME280;37650;52.790;18.268;2022-12-05T20:01:26;100839.45;;;1.38;100.00
40171;BME280;37650;52.790;18.268;2022-12-05T20:04:46;100837.70;;;1.34;100.00
40171;BME280;37650;52.790;18.268;2022-12-05T20:08:09;100836.66;;;1.34;100.00
40171;BME280;37650;52.790;18.268;2022-12-05T20:11:31;100836.00;;;1.37;100.00
40171;BME280;37650;52.790;18.268;2022-12-05T20:14:54;100831.36;;;1.40;100.00
40171;BME280;37650;52.790;18.268;2022-12-05T20:21:49;100831.84;;;1.35;100.00
40171;BME280;37650;52.790;18.268;2022-12-05T20:25:12;100830.67;;;1.39;100.00
40171;BME280;37650;52.790;18.268;2022-12-05T20:28:36;100829.29;;;1.41;100.00
40171;BME280;37650;52.790;18.268;2022-12-05T20:31:58;100830.32;;;1.40;100.00
40171;BME280;37650;52.790;18.268;2022-12-05T20:35:19;100826.89;;;1.44;100.00
40171;BME280;37650;52.790;18.268;2022-12-05T20:38:41;100826.27;;;1.52;100.00
40171;BME280;37650;52.790;18.268;2022-12-05T20:42:02;100823.86;;;1.54;100.00
40171;BME280;37650;52.790;18.268;2022-12-05T20:45:23;100825.63;;;1.59;100.00
40171;BME280;37650;52.790;18.268;2022-12-05T20:48:45;100823.20;;;1.61;100.00
40171;BME280;37650;52.790;18.268;2022-12-05T20:52:06;100821.13;;;1.61;100.00
40171;BME280;37650;52.790;18.268;2022-12-05T20:55:28;100817.32;;;1.61;100.00
40171;BME280;37650;52.790;18.268;2022-12-05T20:58:53;100810.92;;;1.61;100.00
40171;BME280;37650;52.790;18.268;2022-12-05T21:02:32;100808.83;;;1.58;100.00
40171;BME280;37650;52.790;18.268;2022-12-05T21:05:53;100805.86;;;1.56;100.00
40171;BME280;37650;52.790;18.268;2022-12-05T21:09:16;100808.81;;;1.57;100.00
40171;BME280;37650;52.790;18.268;2022-12-05T21:12:46;100800.53;;;1.58;100.00
40171;BME280;37650;52.790;18.268;2022-12-05T21:16:10;100799.02;;;1.67;100.00
40171;BME280;37650;52.790;18.268;2022-12-05T21:19:30;100795.71;;;1.63;100.00
40171;BME280;37650;52.790;18.268;2022-12-05T21:22:51;100795.04;;;1.66;100.00
40171;BME280;37650;52.790;18.268;2022-12-05T21:26:15;100793.67;;;1.67;100.00
40171;BME280;37650;52.790;18.268;2022-12-05T21:29:36;100790.94;;;1.73;100.00
40171;BME280;37650;52.790;18.268;2022-12-05T21:32:57;100783.19;;;1.81;100.00
40171;BME280;37650;52.790;18.268;2022-12-05T21:36:18;100787.54;;;1.85;100.00
40171;BME280;37650;52.790;18.268;2022-12-05T21:39:39;100785.63;;;1.85;100.00
40171;BME280;37650;52.790;18.268;2022-12-05T21:43:00;100787.89;;;1.87;100.00
40171;BME280;37650;52.790;18.268;2022-12-05T21:46:22;100795.14;;;1.84;100.00
40171;BME280;37650;52.790;18.268;2022-12-05T21:49:43;100795.98;;;1.78;100.00
40171;BME280;37650;52.790;18.268;2022-12-05T21:53:04;100800.11;;;1.76;100.00
40171;BME280;37650;52.790;18.268;2022-12-05T21:56:26;100799.43;;;1.76;100.00
40171;BME280;37650;52.790;18.268;2022-12-05T21:59:48;100795.27;;;1.75;100.00
40171;BME280;37650;52.790;18.268;2022-12-05T22:03:12;100792.48;;;1.74;100.00
40171;BME280;37650;52.790;18.268;2022-12-05T22:06:34;100791.47;;;1.77;100.00
40171;BME280;37650;52.790;18.268;2022-12-05T22:09:55;100792.19;;;1.80;100.00
40171;BME280;37650;52.790;18.268;2022-12-05T22:13:16;100789.94;;;1.81;100.00
40171;BME280;37650;52.790;18.268;2022-12-05T22:16:38;100785.45;;;1.81;100.00
40171;BME280;37650;52.790;18.268;2022-12-05T22:19:59;100788.73;;;1.80;100.00
40171;BME280;37650;52.790;18.268;2022-12-05T22:23:20;100785.42;;;1.78;100.00
40171;BME280;37650;52.790;18.268;2022-12-05T22:26:41;100777.65;;;1.79;100.00
40171;BME280;37650;52.790;18.268;2022-12-05T22:30:02;100778.87;;;1.83;100.00
40171;BME280;37650;52.790;18.268;2022-12-05T22:33:24;100771.27;;;1.83;100.00
40171;BME280;37650;52.790;18.268;2022-12-05T22:36:47;100770.38;;;1.79;100.00
40171;BME280;37650;52.790;18.268;2022-12-05T22:40:09;100768.48;;;1.78;100.00
40171;BME280;37650;52.790;18.268;2022-12-05T22:43:32;100766.23;;;1.79;100.00
40171;BME280;37650;52.790;18.268;2022-12-05T22:46:53;100764.50;;;1.79;100.00
40171;BME280;37650;52.790;18.268;2022-12-05T22:50:14;100760.52;;;1.79;100.00
40171;BME280;37650;52.790;18.268;2022-12-05T22:53:35;100760.70;;;1.78;100.00
40171;BME280;37650;52.790;18.268;2022-12-05T22:56:58;100760.37;;;1.81;100.00
40171;BME280;37650;52.790;18.268;2022-12-05T23:00:19;100757.77;;;1.82;100.00
40171;BME280;37650;52.790;18.268;2022-12-05T23:03:41;100753.44;;;1.83;100.00
40171;BME280;37650;52.790;18.268;2022-12-05T23:07:02;100749.98;;;1.84;100.00
40171;BME280;37650;52.790;18.268;2022-12-05T23:10:24;100752.56;;;1.83;100.00
40171;BME280;37650;52.790;18.268;2022-12-05T23:13:46;100746.51;;;1.82;100.00
40171;BME280;37650;52.790;18.268;2022-12-05T23:17:07;100741.69;;;1.84;100.00
40171;BME280;37650;52.790;18.268;2022-12-05T23:20:28;100731.48;;;1.84;100.00
40171;BME280;37650;52.790;18.268;2022-12-05T23:23:52;100726.14;;;1.86;100.00
40171;BME280;37650;52.790;18.268;2022-12-05T23:27:13;100726.48;;;1.86;100.00
40171;BME280;37650;52.790;18.268;2022-12-05T23:30:38;100723.52;;;1.84;100.00
40171;BME280;37650;52.790;18.268;2022-12-05T23:33:59;100724.90;;;1.83;100.00
40171;BME280;37650;52.790;18.268;2022-12-05T23:37:20;100722.16;;;1.86;100.00
40171;BME280;37650;52.790;18.268;2022-12-05T23:40:42;100721.63;;;1.87;100.00
40171;BME280;37650;52.790;18.268;2022-12-05T23:44:03;100716.28;;;1.86;100.00
40171;BME280;37650;52.790;18.268;2022-12-05T23:47:24;100713.34;;;1.89;100.00
40171;BME280;37650;52.790;18.268;2022-12-05T23:50:58;100712.84;;;1.92;100.00
40171;BME280;37650;52.790;18.268;2022-12-05T23:54:20;100705.23;;;1.94;100.00
40171;BME280;37650;52.790;18.268;2022-12-05T23:57:41;100695.55;;;1.96;100.00
